Time;durP1;ratioP1;P1;durP2;ratioP2;P2;SDS_P1;SDS_P2;PMS_P1;PMS_P2;Temp;Humidity;BMP_temperature;BMP_pressure;BME280_temperature;BME280_humidity;BME280_pressure;Samples;Min_cycle;Max_cycle;Signal;HPM_P1;HPM_P2
2023/07/23 00:00:40;;;;;;;17.30;12.55;;;;;;;-148.88;100.00;-17125.47;4996825;28;20065;-76
2023/07/23 00:03:05;;;;;;;15.68;12.07;;;;;;;-148.88;100.00;-17125.47;4996803;28;20033;-75
2023/07/23 00:05:31;;;;;;;16.48;12.35;;;;;;;-148.88;100.00;-17125.47;4996275;28;20100;-75
2023/07/23 00:07:58;;;;;;;16.23;12.00;;;;;;;-148.88;100.00;-17125.47;4996052;28;20155;-76
2023/07/23 00:10:24;;;;;;;15.82;12.00;;;;;;;-148.88;100.00;-17125.47;4996223;28;20049;-76
2023/07/23 00:12:50;;;;;;;15.93;12.52;;;;;;;-148.88;100.00;-17125.47;4995839;28;20058;-76
2023/07/23 00:15:16;;;;;;;19.27;12.82;;;;;;;-148.88;100.00;-17125.47;4995946;28;20030;-76
2023/07/23 00:17:41;;;;;;;16.70;12.77;;;;;;;-148.88;100.00;-17125.47;4995981;28;20022;-76
2023/07/23 00:20:09;;;;;;;16.35;12.52;;;;;;;-148.88;100.00;-17125.47;4996105;28;20415;-75
2023/07/23 00:22:35;;;;;;;15.68;12.48;;;;;;;-148.88;100.00;-17125.47;4996709;28;20023;-76
2023/07/23 00:25:00;;;;;;;18.05;12.90;;;;;;;-148.88;100.00;-17125.47;4996339;28;20025;-76
2023/07/23 00:27:26;;;;;;;16.35;12.13;;;;;;;-148.88;100.00;-17125.47;4994445;28;20026;-77
2023/07/23 00:29:51;;;;;;;16.88;12.93;;;;;;;-148.88;100.00;-17125.47;4995576;28;20026;-76
2023/07/23 00:32:17;;;;;;;18.60;12.65;;;;;;;-148.88;100.00;-17125.47;4995575;28;20515;-76
2023/07/23 00:34:42;;;;;;;16.98;12.15;;;;;;;-148.88;100.00;-17125.47;4996109;28;20373;-76
2023/07/23 00:37:08;;;;;;;17.05;12.00;;;;;;;-148.88;100.00;-17125.47;4994273;28;20408;-76
2023/07/23 00:39:33;;;;;;;14.85;11.20;;;;;;;-148.88;100.00;-17125.47;4996060;28;20078;-76
2023/07/23 00:41:59;;;;;;;17.67;11.93;;;;;;;-148.88;100.00;-17125.47;4995496;28;20514;-76
2023/07/23 00:44:24;;;;;;;17.88;12.52;;;;;;;-148.88;100.00;-17125.47;4994715;28;20040;-76
2023/07/23 00:46:50;;;;;;;15.63;10.77;;;;;;;-148.88;100.00;-17125.47;4994718;28;20116;-76
2023/07/23 00:49:16;;;;;;;17.30;12.13;;;;;;;-148.88;100.00;-17125.47;4993579;28;20030;-76
2023/07/23 00:51:41;;;;;;;15.32;10.68;;;;;;;-148.88;100.00;-17125.47;4994360;28;20431;-76
2023/07/23 00:54:07;;;;;;;13.80;11.18;;;;;;;-148.88;100.00;-17125.47;4994937;28;20093;-76
2023/07/23 00:56:35;;;;;;;15.88;10.18;;;;;;;-148.88;100.00;-17125.47;4994586;28;20053;-76
2023/07/23 00:59:01;;;;;;;14.52;10.50;;;;;;;-148.88;100.00;-17125.47;4994501;28;20026;-76
2023/07/23 01:01:26;;;;;;;15.98;10.18;;;;;;;-148.88;100.00;-17125.47;4994535;28;20022;-76
2023/07/23 01:03:51;;;;;;;19.13;11.38;;;;;;;-148.88;100.00;-17125.47;4994925;28;20030;-76
2023/07/23 01:06:19;;;;;;;14.82;10.65;;;;;;;-148.88;100.00;-17125.47;4994588;28;20468;-76
2023/07/23 01:08:45;;;;;;;15.25;10.70;;;;;;;-148.88;100.00;-17125.47;4994629;28;20026;-76
2023/07/23 01:11:11;;;;;;;15.10;10.68;;;;;;;-148.88;100.00;-17125.47;4994179;28;20018;-76
2023/07/23 01:13:38;;;;;;;14.75;10.65;;;;;;;-148.88;100.00;-17125.47;4993928;28;20037;-76
2023/07/23 01:16:07;;;;;;;18.77;10.60;;;;;;;-148.88;100.00;-17125.47;4993953;28;20030;-75
2023/07/23 01:18:37;;;;;;;15.88;10.55;;;;;;;-148.88;100.00;-17125.47;4995200;28;20045;-75
2023/07/23 01:21:03;;;;;;;17.63;10.80;;;;;;;-148.88;100.00;-17125.47;4998327;28;20034;-75
2023/07/23 01:23:30;;;;;;;15.20;9.77;;;;;;;-148.88;100.00;-17125.47;4997911;28;20365;-75
2023/07/23 01:25:56;;;;;;;15.73;9.63;;;;;;;-148.88;100.00;-17125.47;4998069;28;20395;-76
2023/07/23 01:28:21;;;;;;;13.55;9.57;;;;;;;-148.88;100.00;-17125.47;4998049;28;20526;-76
2023/07/23 01:30:47;;;;;;;15.63;9.43;;;;;;;-148.88;100.00;-17125.47;4997635;28;20456;-76
2023/07/23 01:33:13;;;;;;;21.70;10.38;;;;;;;-148.88;100.00;-17125.47;4997928;28;20053;-75
2023/07/23 01:35:38;;;;;;;18.80;10.40;;;;;;;-148.88;100.00;-17125.47;4997421;28;20431;-75
2023/07/23 01:38:04;;;;;;;15.05;9.55;;;;;;;-148.88;100.00;-17125.47;4997849;28;20026;-75
2023/07/23 01:40:30;;;;;;;17.00;10.00;;;;;;;-148.88;100.00;-17125.47;4997752;28;20022;-75
2023/07/23 01:42:55;;;;;;;16.73;10.32;;;;;;;-148.88;100.00;-17125.47;4997648;28;20018;-75
2023/07/23 01:45:21;;;;;;;15.48;9.50;;;;;;;-148.88;100.00;-17125.47;4997273;28;20026;-76
2023/07/23 01:47:46;;;;;;;13.20;9.57;;;;;;;-148.88;100.00;-17125.47;4996443;28;20527;-76
2023/07/23 01:50:12;;;;;;;14.48;9.48;;;;;;;-148.88;100.00;-17125.47;4997431;28;20046;-75
2023/07/23 01:52:37;;;;;;;13.25;9.75;;;;;;;-148.88;100.00;-17125.47;4996978;28;20114;-75
2023/07/23 01:55:03;;;;;;;13.55;8.70;;;;;;;-148.88;100.00;-17125.47;4999235;28;20034;-75
2023/07/23 01:57:28;;;;;;;13.15;8.98;;;;;;;-148.88;100.00;-17125.47;4997566;28;20022;-75
2023/07/23 01:59:53;;;;;;;17.80;9.75;;;;;;;-148.88;100.00;-17125.47;4995960;28;20472;-76
2023/07/23 02:02:19;;;;;;;16.75;8.98;;;;;;;-148.88;100.00;-17125.47;5010435;23;20042;-78
2023/07/23 02:04:44;;;;;;;16.52;8.80;;;;;;;-148.88;100.00;-17125.47;5013569;28;20022;-78
2023/07/23 02:07:11;;;;;;;12.63;8.25;;;;;;;-148.88;100.00;-17125.47;4998791;28;20038;-78
2023/07/23 02:09:37;;;;;;;13.45;9.02;;;;;;;-148.88;100.00;-17125.47;4997546;28;20025;-79
2023/07/23 02:12:02;;;;;;;13.07;8.85;;;;;;;-148.88;100.00;-17125.47;4999062;28;20027;-79
2023/07/23 02:14:29;;;;;;;15.40;8.75;;;;;;;-148.88;100.00;-17125.47;5016380;23;20042;-86
2023/07/23 02:16:55;;;;;;;13.25;8.85;;;;;;;-148.88;100.00;-17125.47;5012142;28;20026;-86
2023/07/23 02:19:20;;;;;;;15.27;8.93;;;;;;;-148.88;100.00;-17125.47;5011946;28;20048;-86
2023/07/23 02:21:46;;;;;;;13.30;8.02;;;;;;;-148.88;100.00;-17125.47;4996520;28;20080;-85
2023/07/23 02:24:11;;;;;;;14.07;8.48;;;;;;;-148.88;100.00;-17125.47;4995753;28;20034;-86
2023/07/23 02:26:37;;;;;;;15.95;7.70;;;;;;;-148.88;100.00;-17125.47;4995996;28;20034;-85
2023/07/23 02:29:03;;;;;;;15.77;8.38;;;;;;;-148.88;100.00;-17125.47;4995726;28;20113;-86
2023/07/23 02:31:28;;;;;;;11.63;7.85;;;;;;;-148.88;100.00;-17125.47;4996955;28;20029;-85
2023/07/23 02:33:54;;;;;;;13.73;8.15;;;;;;;-148.88;100.00;-17125.47;4995685;28;20053;-86
2023/07/23 02:36:21;;;;;;;12.43;8.77;;;;;;;-148.88;100.00;-17125.47;4995430;28;20102;-86
2023/07/23 02:38:47;;;;;;;15.75;8.25;;;;;;;-148.88;100.00;-17125.47;4995678;28;20041;-87
2023/07/23 02:41:12;;;;;;;15.45;8.15;;;;;;;-148.88;100.00;-17125.47;4995199;28;20026;-86
2023/07/23 02:43:41;;;;;;;12.52;7.50;;;;;;;-148.88;100.00;-17125.47;4996243;28;20026;-86
2023/07/23 02:46:07;;;;;;;14.10;7.65;;;;;;;-148.88;100.00;-17125.47;4994584;28;20034;-86
2023/07/23 02:48:34;;;;;;;11.88;7.38;;;;;;;-148.88;100.00;-17125.47;4994855;28;20404;-86
2023/07/23 02:51:00;;;;;;;16.83;7.50;;;;;;;-148.88;100.00;-17125.47;4994747;28;20066;-86
2023/07/23 02:53:28;;;;;;;14.57;8.02;;;;;;;-148.88;100.00;-17125.47;4994745;28;20077;-86
2023/07/23 02:55:54;;;;;;;12.65;7.82;;;;;;;-148.88;100.00;-17125.47;4979066;28;20034;-85
2023/07/23 02:58:20;;;;;;;14.80;8.52;;;;;;;-148.88;100.00;-17125.47;4994856;28;20027;-86
2023/07/23 03:00:46;;;;;;;13.63;8.52;;;;;;;-148.88;100.00;-17125.47;4994850;28;20061;-86
2023/07/23 03:03:12;;;;;;;12.13;8.13;;;;;;;-148.88;100.00;-17125.47;4994742;28;20054;-86
2023/07/23 03:05:42;;;;;;;16.58;8.07;;;;;;;-148.88;100.00;-17125.47;4994762;28;20165;-85
2023/07/23 03:08:08;;;;;;;16.45;8.50;;;;;;;-148.88;100.00;-17125.47;4995189;28;20030;-87
2023/07/23 03:10:34;;;;;;;17.48;8.23;;;;;;;-148.88;100.00;-17125.47;4994472;28;20022;-87
2023/07/23 03:13:00;;;;;;;14.27;7.35;;;;;;;-148.88;100.00;-17125.47;4994424;28;20470;-86
2023/07/23 03:15:25;;;;;;;12.88;8.02;;;;;;;-148.88;100.00;-17125.47;4994524;28;20038;-86
2023/07/23 03:17:51;;;;;;;14.93;7.40;;;;;;;-148.88;100.00;-17125.47;4994710;28;20429;-85
2023/07/23 03:20:17;;;;;;;16.88;7.50;;;;;;;-148.88;100.00;-17125.47;4994226;28;20030;-86
2023/07/23 03:22:46;;;;;;;15.80;8.27;;;;;;;-148.88;100.00;-17125.47;4995443;28;20030;-86
2023/07/23 03:25:12;;;;;;;14.45;6.88;;;;;;;-148.88;100.00;-17125.47;4994194;28;20030;-87
2023/07/23 03:27:37;;;;;;;15.30;7.63;;;;;;;-148.88;100.00;-17125.47;4994181;28;20030;-87
2023/07/23 03:30:04;;;;;;;14.45;7.85;;;;;;;-148.88;100.00;-17125.47;4994683;28;20030;-87
2023/07/23 03:32:32;;;;;;;14.68;7.63;;;;;;;-148.88;100.00;-17125.47;4994000;28;20023;-87
2023/07/23 03:35:03;;;;;;;14.98;7.88;;;;;;;-148.88;100.00;-17125.47;4997294;28;20049;-87
2023/07/23 03:37:29;;;;;;;14.15;7.68;;;;;;;-148.88;100.00;-17125.47;4997321;28;20033;-86
2023/07/23 03:39:54;;;;;;;12.98;7.68;;;;;;;-148.88;100.00;-17125.47;4996685;28;20022;-87
2023/07/23 03:42:20;;;;;;;16.23;7.53;;;;;;;-148.88;100.00;-17125.47;4993268;28;20026;-88
2023/07/23 03:44:46;;;;;;;13.73;7.53;;;;;;;-148.88;100.00;-17125.47;4994333;28;20531;-87
2023/07/23 03:47:14;;;;;;;12.20;8.07;;;;;;;-148.88;100.00;-17125.47;4994150;28;20030;-87
2023/07/23 03:49:44;;;;;;;14.35;7.38;;;;;;;-148.88;100.00;-17125.47;4993920;28;20026;-86
2023/07/23 03:52:13;;;;;;;13.57;7.97;;;;;;;-148.88;100.00;-17125.47;4993937;28;20029;-86
2023/07/23 03:54:41;;;;;;;13.00;7.32;;;;;;;-148.88;100.00;-17125.47;4994985;28;20022;-86
2023/07/23 03:57:07;;;;;;;13.23;7.50;;;;;;;-148.88;100.00;-17125.47;4994306;28;20069;-86
2023/07/23 03:59:44;;;;;;;12.88;7.05;;;;;;;-148.88;100.00;-17125.47;4993988;28;20030;-87
2023/07/23 04:02:10;;;;;;;14.82;7.10;;;;;;;-148.88;100.00;-17125.47;4994787;28;20049;-86
2023/07/23 04:04:36;;;;;;;18.55;7.93;;;;;;;-148.88;100.00;-17125.47;4994664;28;20030;-86
2023/07/23 04:07:03;;;;;;;17.05;7.85;;;;;;;-148.88;100.00;-17125.47;4993527;28;20268;-86
2023/07/23 04:09:28;;;;;;;13.10;7.35;;;;;;;-148.88;100.00;-17125.47;4994785;28;20433;-86
2023/07/23 04:11:55;;;;;;;14.48;7.45;;;;;;;-148.88;100.00;-17125.47;4993468;28;20477;-85
2023/07/23 04:14:21;;;;;;;13.55;7.15;;;;;;;-148.88;100.00;-17125.47;4994495;28;20104;-86
2023/07/23 04:16:47;;;;;;;12.80;7.68;;;;;;;-148.88;100.00;-17125.47;4993443;28;20101;-86
2023/07/23 04:19:12;;;;;;;16.27;7.35;;;;;;;-148.88;100.00;-17125.47;4993915;28;20064;-85
2023/07/23 04:21:38;;;;;;;16.13;7.82;;;;;;;-148.88;100.00;-17125.47;4993236;28;20022;-86
2023/07/23 04:24:03;;;;;;;12.38;7.57;;;;;;;-148.88;100.00;-17125.47;4994422;28;20065;-85
2023/07/23 04:26:29;;;;;;;12.82;7.45;;;;;;;-148.88;100.00;-17125.47;4995052;28;20045;-84
2023/07/23 04:28:55;;;;;;;15.10;7.22;;;;;;;-148.88;100.00;-17125.47;4995599;28;20058;-85
2023/07/23 04:31:20;;;;;;;14.07;7.68;;;;;;;-148.88;100.00;-17125.47;4994425;28;20105;-87
2023/07/23 04:33:46;;;;;;;12.23;7.28;;;;;;;-148.88;100.00;-17125.47;4993381;28;20026;-85
2023/07/23 04:36:13;;;;;;;15.60;7.45;;;;;;;-148.88;100.00;-17125.47;4993878;28;20061;-86
2023/07/23 04:38:39;;;;;;;14.07;7.40;;;;;;;-148.88;100.00;-17125.47;4996787;28;20030;-85
2023/07/23 04:41:05;;;;;;;15.82;7.68;;;;;;;-148.88;100.00;-17125.47;4997961;28;20105;-86
2023/07/23 04:43:31;;;;;;;13.68;7.10;;;;;;;-148.88;100.00;-17125.47;4996944;28;20089;-86
2023/07/23 04:45:56;;;;;;;11.48;7.00;;;;;;;-148.88;100.00;-17125.47;4999572;28;20034;-86
2023/07/23 04:48:22;;;;;;;13.63;7.00;;;;;;;-148.88;100.00;-17125.47;4996084;28;20436;-86
2023/07/23 04:51:04;;;;;;;14.70;7.43;;;;;;;-148.88;100.00;-17125.47;4993199;28;20038;-85
2023/07/23 04:53:30;;;;;;;13.82;7.47;;;;;;;-148.88;100.00;-17125.47;4993620;28;20076;-85
2023/07/23 04:55:57;;;;;;;12.50;7.10;;;;;;;-148.88;100.00;-17125.47;4995558;28;20045;-85
2023/07/23 04:58:23;;;;;;;13.82;7.50;;;;;;;-148.88;100.00;-17125.47;4994587;28;20269;-86
2023/07/23 05:00:49;;;;;;;15.55;7.30;;;;;;;-148.88;100.00;-17125.47;4994410;28;20050;-86
2023/07/23 05:03:15;;;;;;;14.55;7.38;;;;;;;-148.88;100.00;-17125.47;4993262;28;20073;-86
2023/07/23 05:05:43;;;;;;;11.60;7.47;;;;;;;-148.88;100.00;-17125.47;4993161;28;20122;-85
2023/07/23 05:08:09;;;;;;;12.90;7.22;;;;;;;-148.88;100.00;-17125.47;4992869;28;20026;-85
2023/07/23 05:10:34;;;;;;;14.13;7.80;;;;;;;-148.88;100.00;-17125.47;4995045;28;20033;-84
2023/07/23 05:13:00;;;;;;;16.63;8.00;;;;;;;-148.88;100.00;-17125.47;4994532;28;20425;-83
2023/07/23 05:15:25;;;;;;;13.90;7.50;;;;;;;-148.88;100.00;-17125.47;4992764;28;20058;-83
2023/07/23 05:17:50;;;;;;;13.05;7.57;;;;;;;-148.88;100.00;-17125.47;4992434;28;20029;-84
2023/07/23 05:20:16;;;;;;;13.60;7.97;;;;;;;-148.88;100.00;-17125.47;4993544;28;20053;-84
2023/07/23 05:22:42;;;;;;;15.70;7.65;;;;;;;-148.88;100.00;-17125.47;4993629;28;20366;-85
2023/07/23 05:25:08;;;;;;;16.67;8.20;;;;;;;-148.88;100.00;-17125.47;4992191;28;20478;-86
2023/07/23 05:27:34;;;;;;;10.35;7.50;;;;;;;-148.88;100.00;-17125.47;4993620;28;20037;-86
2023/07/23 05:29:59;;;;;;;12.65;7.28;;;;;;;-148.88;100.00;-17125.47;4992384;28;20030;-86
2023/07/23 05:32:25;;;;;;;14.00;7.75;;;;;;;-148.88;100.00;-17125.47;4993629;28;20401;-86
2023/07/23 05:34:50;;;;;;;12.18;7.28;;;;;;;-148.88;100.00;-17125.47;4992646;28;20022;-87
2023/07/23 05:37:15;;;;;;;14.77;7.82;;;;;;;-148.88;100.00;-17125.47;4993587;28;20509;-87
2023/07/23 05:39:41;;;;;;;13.50;7.80;;;;;;;-148.88;100.00;-17125.47;4992747;28;20030;-87
2023/07/23 05:42:06;;;;;;;13.27;7.30;;;;;;;-148.88;100.00;-17125.47;4992202;28;20396;-86
2023/07/23 05:44:32;;;;;;;11.00;6.65;;;;;;;-148.88;100.00;-17125.47;4992216;28;20033;-87
2023/07/23 05:46:58;;;;;;;10.95;6.50;;;;;;;-148.88;100.00;-17125.47;4993486;28;20034;-86
2023/07/23 05:49:26;;;;;;;11.20;6.57;;;;;;;-148.88;100.00;-17125.47;4993658;28;20022;-85
2023/07/23 05:51:52;;;;;;;11.68;6.00;;;;;;;-148.88;100.00;-17125.47;4993304;28;20030;-86
2023/07/23 05:54:18;;;;;;;9.48;5.93;;;;;;;-148.88;100.00;-17125.47;4993407;28;20029;-86
2023/07/23 05:56:43;;;;;;;8.90;5.68;;;;;;;-148.88;100.00;-17125.47;4992269;28;20432;-86
2023/07/23 05:59:09;;;;;;;10.00;6.22;;;;;;;-148.88;100.00;-17125.47;4993373;28;20397;-85
2023/07/23 06:01:35;;;;;;;12.02;5.75;;;;;;;-148.88;100.00;-17125.47;4992022;28;20109;-85
2023/07/23 06:04:00;;;;;;;8.88;5.13;;;;;;;-148.88;100.00;-17125.47;4992024;28;20022;-83
2023/07/23 06:06:26;;;;;;;7.22;5.25;;;;;;;-148.88;100.00;-17125.47;4995501;28;20026;-84
2023/07/23 06:08:51;;;;;;;8.60;5.60;;;;;;;-148.88;100.00;-17125.47;4995746;28;20061;-84
2023/07/23 06:11:16;;;;;;;7.72;5.70;;;;;;;-148.88;100.00;-17125.47;4996789;28;20535;-86
2023/07/23 06:13:42;;;;;;;8.77;5.70;;;;;;;-148.88;100.00;-17125.47;4995809;28;20034;-85
2023/07/23 06:16:07;;;;;;;7.53;5.22;;;;;;;-148.88;100.00;-17125.47;4995478;28;20056;-85
2023/07/23 06:18:35;;;;;;;7.70;5.30;;;;;;;-148.88;100.00;-17125.47;4995794;28;20058;-85
2023/07/23 06:21:02;;;;;;;10.63;5.50;;;;;;;-148.88;100.00;-17125.47;4996728;28;20037;-85
2023/07/23 06:23:27;;;;;;;7.63;5.57;;;;;;;-148.88;100.00;-17125.47;4995460;28;20045;-85
2023/07/23 06:25:56;;;;;;;7.68;5.13;;;;;;;-148.88;100.00;-17125.47;4996812;28;20031;-86
2023/07/23 06:28:22;;;;;;;9.05;5.70;;;;;;;-148.88;100.00;-17125.47;4995830;28;20018;-84
2023/07/23 06:30:54;;;;;;;7.97;5.18;;;;;;;-148.88;100.00;-17125.47;4995309;28;20378;-85
2023/07/23 06:33:28;;;;;;;8.60;5.05;;;;;;;-148.88;99.28;-17125.47;4996197;28;20069;-86
2023/07/23 06:35:53;;;;;;;6.97;4.70;;;;;;;-148.88;98.17;-17125.47;4997217;28;20030;-85
2023/07/23 06:38:22;;;;;;;7.75;5.18;;;;;;;-148.88;99.17;-17125.47;4996646;28;20030;-86
2023/07/23 06:40:51;;;;;;;7.32;4.88;;;;;;;-148.88;97.17;-17125.47;4996662;28;20592;-86
2023/07/23 06:43:16;;;;;;;8.48;5.13;;;;;;;-148.88;99.09;-17125.47;5000035;28;20026;-85
2023/07/23 06:45:44;;;;;;;7.00;4.72;;;;;;;-148.88;96.57;-17125.47;4995717;28;20508;-86
2023/07/23 06:48:10;;;;;;;7.50;4.82;;;;;;;-148.88;98.48;-17125.47;4996894;28;20101;-85
2023/07/23 06:50:36;;;;;;;7.78;5.10;;;;;;;-148.88;96.57;-17125.47;4994956;28;20058;-85
2023/07/23 06:53:10;;;;;;;8.80;4.80;;;;;;;-148.88;95.57;-17125.47;4996531;28;20448;-86
2023/07/23 06:55:57;;;;;;;7.05;4.50;;;;;;;-148.88;95.57;-17125.47;4996357;28;20034;-86
2023/07/23 06:58:22;;;;;;;7.88;4.72;;;;;;;-148.88;95.23;-17125.47;4994887;28;20022;-87
2023/07/23 07:00:48;;;;;;;7.10;4.30;;;;;;;-148.88;92.26;-17125.47;4994755;28;20370;-86
2023/07/23 07:03:13;;;;;;;6.03;4.78;;;;;;;-148.88;90.81;-17125.47;4995234;28;20026;-86
2023/07/23 07:05:38;;;;;;;8.07;4.55;;;;;;;-148.88;89.29;-17125.47;4997036;28;20022;-85
2023/07/23 07:08:04;;;;;;;5.88;3.95;;;;;;;-148.88;88.34;-17125.47;4995875;28;20054;-86
2023/07/23 07:10:29;;;;;;;6.55;4.18;;;;;;;-148.88;89.10;-17125.47;4998205;28;20026;-86
2023/07/23 07:12:54;;;;;;;6.80;4.38;;;;;;;-148.88;89.08;-17125.47;4997010;28;20030;-86
2023/07/23 07:15:29;;;;;;;6.03;4.28;;;;;;;-148.88;87.73;-17125.47;4994737;28;20041;-86
2023/07/23 07:17:54;;;;;;;5.53;4.07;;;;;;;-148.88;88.24;-17125.47;4994974;28;20520;-86
2023/07/23 07:20:20;;;;;;;6.53;3.75;;;;;;;-148.88;86.39;-17125.47;4996168;28;20042;-86
2023/07/23 07:22:48;;;;;;;6.25;3.97;;;;;;;-148.88;88.06;-17125.47;4994489;28;20065;-85
2023/07/23 07:25:14;;;;;;;8.02;4.15;;;;;;;-148.88;85.70;-17125.47;4995599;28;20030;-87
2023/07/23 07:27:39;;;;;;;6.80;4.18;;;;;;;-148.88;85.13;-17125.47;4994795;28;20469;-85
2023/07/23 07:30:05;;;;;;;6.20;4.00;;;;;;;-148.88;85.82;-17125.47;4994318;28;20029;-86
2023/07/23 07:32:31;;;;;;;7.80;3.45;;;;;;;-148.88;81.21;-17125.47;4994604;28;20026;-85
2023/07/23 07:35:02;;;;;;;7.45;4.03;;;;;;;-148.88;81.73;-17125.47;4995963;28;20037;-85
2023/07/23 07:37:27;;;;;;;5.70;3.60;;;;;;;-148.88;84.09;-17125.47;4994962;28;20029;-86
2023/07/23 07:40:04;;;;;;;7.55;3.58;;;;;;;-148.88;83.36;-17125.47;4994245;28;20030;-86
2023/07/23 07:42:29;;;;;;;7.05;4.28;;;;;;;-148.88;84.09;-17125.47;4994664;28;20121;-86
2023/07/23 07:44:55;;;;;;;6.15;3.65;;;;;;;-148.88;82.38;-17125.47;4995260;28;20109;-86
2023/07/23 07:47:20;;;;;;;6.03;3.75;;;;;;;-148.88;81.90;-17125.47;4993760;28;20049;-86
2023/07/23 07:49:45;;;;;;;5.78;3.67;;;;;;;-148.88;81.41;-17125.47;4995325;28;20027;-86
2023/07/23 07:52:11;;;;;;;6.32;3.90;;;;;;;-148.88;81.69;-17125.47;4994786;28;20540;-84
2023/07/23 07:54:40;;;;;;;5.90;3.55;;;;;;;-148.88;82.31;-17125.47;4994779;28;20046;-85
2023/07/23 07:57:06;;;;;;;5.50;3.55;;;;;;;-148.88;81.92;-17125.47;4994818;28;20026;-85
2023/07/23 07:59:35;;;;;;;5.57;3.30;;;;;;;-148.88;78.41;-17125.47;4994884;28;20027;-86
2023/07/23 08:02:01;;;;;;;7.55;3.30;;;;;;;-148.88;79.36;-17125.47;4994729;28;20061;-84
2023/07/23 08:04:27;;;;;;;8.25;3.60;;;;;;;-148.88;77.50;-17125.47;4994743;28;20026;-84
2023/07/23 08:06:53;;;;;;;4.32;3.22;;;;;;;-148.88;78.66;-17125.47;4993949;28;20084;-85
2023/07/23 08:09:23;;;;;;;7.50;3.03;;;;;;;-148.88;79.78;-17125.47;4994682;28;20425;-88
2023/07/23 08:11:49;;;;;;;5.10;3.40;;;;;;;-148.88;75.83;-17125.47;4993567;28;20073;-86
2023/07/23 08:14:15;;;;;;;7.53;3.70;;;;;;;-148.88;75.12;-17125.47;4993024;28;20038;-85
2023/07/23 08:16:42;;;;;;;7.45;3.45;;;;;;;-148.88;77.20;-17125.47;4994261;28;20129;-87
2023/07/23 08:19:08;;;;;;;5.28;2.83;;;;;;;-148.88;74.78;-17125.47;4994718;28;20026;-86
2023/07/23 08:21:34;;;;;;;7.95;3.67;;;;;;;-148.88;75.68;-17125.47;4994514;28;20034;-85
2023/07/23 08:23:59;;;;;;;6.03;3.20;;;;;;;-148.88;73.87;-17125.47;4994352;28;20109;-87
2023/07/23 08:26:27;;;;;;;5.95;3.13;;;;;;;-148.88;75.75;-17125.47;4994281;28;20370;-85
2023/07/23 08:29:02;;;;;;;6.63;3.42;;;;;;;-148.88;75.36;-17125.47;4993391;28;20026;-86
2023/07/23 08:31:28;;;;;;;5.35;3.35;;;;;;;-148.88;76.66;-17125.47;4994420;28;20105;-85
2023/07/23 08:33:59;;;;;;;4.55;3.10;;;;;;;-148.88;73.97;-17125.47;4992885;28;20116;-86
2023/07/23 08:36:26;;;;;;;6.40;3.28;;;;;;;-148.88;74.21;-17125.47;4994567;28;20442;-87
2023/07/23 08:38:52;;;;;;;5.10;3.10;;;;;;;-148.88;70.82;-17125.47;4994350;28;20026;-86
2023/07/23 08:41:26;;;;;;;5.40;3.42;;;;;;;-148.88;74.75;-17125.47;4994504;28;20048;-84
2023/07/23 08:44:16;;;;;;;6.75;2.90;;;;;;;-148.88;72.86;-17125.47;4992873;28;20515;-85
2023/07/23 08:46:46;;;;;;;5.65;3.30;;;;;;;-148.88;73.71;-17125.47;4993496;28;20031;-85
2023/07/23 08:49:14;;;;;;;5.40;3.17;;;;;;;-148.88;71.45;-17125.47;4996717;28;20046;-85
2023/07/23 08:51:47;;;;;;;6.13;3.10;;;;;;;-148.88;73.41;-17125.47;4993787;28;20393;-85
2023/07/23 08:54:16;;;;;;;6.28;3.20;;;;;;;-148.88;72.13;-17125.47;4992839;28;20022;-86
2023/07/23 08:56:43;;;;;;;5.07;3.50;;;;;;;-148.88;71.20;-17125.47;4994410;28;20489;-87
2023/07/23 08:59:09;;;;;;;7.40;3.42;;;;;;;-148.88;70.46;-17125.47;4994197;28;20393;-86
2023/07/23 09:01:36;;;;;;;6.35;3.67;;;;;;;-148.88;70.68;-17125.47;4994309;28;20025;-86
2023/07/23 09:04:05;;;;;;;5.60;2.83;;;;;;;-148.88;71.16;-17125.47;4993894;28;20023;-85
2023/07/23 09:06:31;;;;;;;6.10;3.10;;;;;;;-148.88;70.46;-17125.47;4993967;28;20045;-85
2023/07/23 09:09:01;;;;;;;5.28;3.50;;;;;;;-148.88;72.57;-17125.47;4992822;28;20019;-85
2023/07/23 09:11:28;;;;;;;5.40;3.40;;;;;;;-148.88;69.46;-17125.47;4994180;28;20026;-84
2023/07/23 09:13:58;;;;;;;6.28;3.47;;;;;;;-148.88;69.88;-17125.47;4994430;28;20046;-85
2023/07/23 09:16:30;;;;;;;6.60;3.10;;;;;;;-148.88;70.11;-17125.47;4993971;28;20535;-87
2023/07/23 09:18:55;;;;;;;7.22;3.88;;;;;;;-148.88;70.75;-17125.47;4992978;28;20061;-85
2023/07/23 09:21:27;;;;;;;6.25;3.35;;;;;;;-148.88;70.45;-17125.47;4992840;28;20053;-85
2023/07/23 09:23:57;;;;;;;4.40;3.33;;;;;;;-148.88;71.63;-17125.47;4993201;28;20535;-85
2023/07/23 09:26:26;;;;;;;8.48;3.22;;;;;;;-148.88;72.75;-17125.47;4994276;28;20034;-88
2023/07/23 09:28:53;;;;;;;4.90;3.30;;;;;;;-148.88;70.99;-17125.47;4994163;28;20552;-85
2023/07/23 09:31:31;;;;;;;6.18;3.15;;;;;;;-148.88;71.05;-17125.47;4992432;28;20030;-85
2023/07/23 09:34:04;;;;;;;6.82;3.72;;;;;;;-148.88;71.26;-17125.47;4996987;28;20022;-85
2023/07/23 09:36:30;;;;;;;4.82;3.15;;;;;;;-148.88;72.34;-17125.47;5004530;28;20026;-86
2023/07/23 09:39:03;;;;;;;6.32;4.07;;;;;;;-148.88;72.82;-17125.47;4994600;28;20098;-87
2023/07/23 09:41:40;;;;;;;5.55;3.45;;;;;;;-148.88;72.33;-17125.47;4998485;28;20027;-87
2023/07/23 09:44:10;;;;;;;4.60;2.83;;;;;;;-148.88;72.04;-17125.47;4996617;28;20030;-85
2023/07/23 09:46:38;;;;;;;5.10;3.40;;;;;;;-148.88;70.16;-17125.47;4997844;28;20058;-87
2023/07/23 09:49:03;;;;;;;4.53;3.30;;;;;;;-148.88;71.14;-17125.47;4996130;28;20034;-89
2023/07/23 09:51:32;;;;;;;7.05;3.47;;;;;;;-148.88;72.70;-17125.47;4996325;28;20026;-91
2023/07/23 09:54:02;;;;;;;4.43;3.33;;;;;;;-148.88;74.29;-17125.47;4996177;28;20022;-87
2023/07/23 09:56:28;;;;;;;6.22;3.53;;;;;;;-148.88;76.20;-17125.47;4996074;28;20113;-86
2023/07/23 09:58:54;;;;;;;7.03;3.95;;;;;;;-148.88;77.41;-17125.47;4995943;28;20065;-86
2023/07/23 10:01:20;;;;;;;5.97;4.05;;;;;;;-148.88;78.62;-17125.47;4997505;28;20037;-87
2023/07/23 10:03:48;;;;;;;5.85;3.70;;;;;;;-148.88;79.45;-17125.47;4996297;28;20026;-86
2023/07/23 10:06:23;;;;;;;4.72;3.22;;;;;;;-148.88;84.55;-17125.47;4996007;28;20030;-87
2023/07/23 10:08:49;;;;;;;28.80;26.65;;;;;;;-148.88;89.41;-17125.47;4996700;28;20026;-88
2023/07/23 10:11:17;;;;;;;5.13;3.20;;;;;;;-148.88;90.31;-17125.47;4997489;28;20029;-87
2023/07/23 10:13:44;;;;;;;6.15;3.30;;;;;;;-148.88;92.51;-17125.47;4995984;28;20116;-87
2023/07/23 10:16:35;;;;;;;6.90;3.38;;;;;;;-148.88;93.07;-17125.47;4996202;28;20034;-88
2023/07/23 10:19:04;;;;;;;4.80;2.92;;;;;;;-148.88;91.42;-17125.47;4996352;28;20121;-86
2023/07/23 10:21:31;;;;;;;4.65;3.15;;;;;;;-148.88;92.56;-17125.47;4996032;28;20022;-85
2023/07/23 10:23:57;;;;;;;6.50;3.00;;;;;;;-148.88;91.80;-17125.47;4995654;28;20081;-87
2023/07/23 10:26:38;;;;;;;5.18;2.97;;;;;;;-148.88;89.43;-17125.47;4996924;28;20022;-86
2023/07/23 10:29:07;;;;;;;4.03;3.08;;;;;;;-148.88;89.56;-17125.47;5011853;28;20026;-87
2023/07/23 10:31:32;;;;;;;4.70;3.00;;;;;;;-148.88;87.18;-17125.47;4996195;28;20038;-87
2023/07/23 10:34:27;;;;;;;4.35;2.80;;;;;;;-148.88;85.73;-17125.47;4995453;28;20049;-88
2023/07/23 10:37:19;;;;;;;4.85;2.58;;;;;;;-148.88;85.87;-17125.47;4991700;28;20034;-89
2023/07/23 10:39:49;;;;;;;6.20;3.03;;;;;;;-148.88;85.65;-17125.47;4995276;28;20026;-87
2023/07/23 10:42:41;;;;;;;6.72;3.05;;;;;;;-148.88;86.42;-17125.47;4996682;28;20022;-86
2023/07/23 10:45:22;;;;;;;5.03;2.90;;;;;;;-148.88;86.87;-17125.47;4995475;28;20030;-88
2023/07/23 10:47:49;;;;;;;3.55;2.55;;;;;;;-148.88;85.56;-17125.47;4997076;28;20573;-89
2023/07/23 10:50:16;;;;;;;5.35;3.22;;;;;;;-148.88;81.75;-17125.47;4995236;28;20030;-87
2023/07/23 10:52:50;;;;;;;4.25;2.72;;;;;;;-148.88;81.97;-17125.47;4995205;28;20489;-87
2023/07/23 10:55:34;;;;;;;6.75;3.53;;;;;;;-148.88;81.65;-17125.47;4996406;28;20041;-87
2023/07/23 10:58:11;;;;;;;3.88;2.33;;;;;;;-148.88;81.78;-17125.47;4995290;28;20022;-87
2023/07/23 11:00:46;;;;;;;3.70;2.53;;;;;;;-148.88;81.98;-17125.47;4995541;28;20031;-86